sensor_id;sensor_type;location;lat;lon;timestamp;P1;durP1;ratioP1;P2;durP2;ratioP2
52586;SDS011;38480;52.724;6.436;2023-07-22T00:02:02;22.83;;;10.40;;
52586;SDS011;38480;52.724;6.436;2023-07-22T00:04:28;23.20;;;11.13;;
52586;SDS011;38480;52.724;6.436;2023-07-22T00:06:54;25.97;;;11.63;;
52586;SDS011;38480;52.724;6.436;2023-07-22T00:09:21;23.47;;;10.47;;
52586;SDS011;38480;52.724;6.436;2023-07-22T00:11:48;22.97;;;11.83;;
52586;SDS011;38480;52.724;6.436;2023-07-22T00:14:15;22.97;;;11.23;;
52586;SDS011;38480;52.724;6.436;2023-07-22T00:16:41;23.60;;;12.17;;
52586;SDS011;38480;52.724;6.436;2023-07-22T00:19:07;27.20;;;12.53;;
52586;SDS011;38480;52.724;6.436;2023-07-22T00:21:33;23.30;;;11.33;;
52586;SDS011;38480;52.724;6.436;2023-07-22T00:23:59;28.53;;;13.07;;
52586;SDS011;38480;52.724;6.436;2023-07-22T00:26:26;24.20;;;11.40;;
52586;SDS011;38480;52.724;6.436;2023-07-22T00:28:52;32.47;;;12.33;;
52586;SDS011;38480;52.724;6.436;2023-07-22T00:31:18;26.93;;;11.83;;
52586;SDS011;38480;52.724;6.436;2023-07-22T00:33:44;30.40;;;13.33;;
52586;SDS011;38480;52.724;6.436;2023-07-22T00:36:10;25.50;;;13.40;;
52586;SDS011;38480;52.724;6.436;2023-07-22T00:38:36;29.77;;;13.07;;
52586;SDS011;38480;52.724;6.436;2023-07-22T00:41:02;28.23;;;12.63;;
52586;SDS011;38480;52.724;6.436;2023-07-22T00:43:32;31.10;;;12.73;;
52586;SDS011;38480;52.724;6.436;2023-07-22T00:45:58;28.43;;;12.77;;
52586;SDS011;38480;52.724;6.436;2023-07-22T00:48:24;30.03;;;13.03;;
52586;SDS011;38480;52.724;6.436;2023-07-22T00:50:51;30.20;;;13.53;;
52586;SDS011;38480;52.724;6.436;2023-07-22T00:53:17;29.17;;;13.70;;
52586;SDS011;38480;52.724;6.436;2023-07-22T00:55:43;33.17;;;14.13;;
52586;SDS011;38480;52.724;6.436;2023-07-22T00:58:10;29.90;;;13.03;;
52586;SDS011;38480;52.724;6.436;2023-07-22T01:00:36;33.63;;;15.33;;
52586;SDS011;38480;52.724;6.436;2023-07-22T01:03:03;29.57;;;14.50;;
52586;SDS011;38480;52.724;6.436;2023-07-22T01:05:29;27.93;;;13.83;;
52586;SDS011;38480;52.724;6.436;2023-07-22T01:07:56;28.23;;;14.67;;
52586;SDS011;38480;52.724;6.436;2023-07-22T01:10:22;27.17;;;12.33;;
52586;SDS011;38480;52.724;6.436;2023-07-22T01:12:48;31.53;;;13.93;;
52586;SDS011;38480;52.724;6.436;2023-07-22T01:15:14;28.20;;;12.47;;
52586;SDS011;38480;52.724;6.436;2023-07-22T01:17:40;25.43;;;12.80;;
52586;SDS011;38480;52.724;6.436;2023-07-22T01:20:07;29.00;;;14.53;;
52586;SDS011;38480;52.724;6.436;2023-07-22T01:22:34;25.37;;;13.27;;
52586;SDS011;38480;52.724;6.436;2023-07-22T01:25:01;32.40;;;12.60;;
52586;SDS011;38480;52.724;6.436;2023-07-22T01:27:28;25.93;;;11.83;;
52586;SDS011;38480;52.724;6.436;2023-07-22T01:29:54;27.10;;;12.87;;
52586;SDS011;38480;52.724;6.436;2023-07-22T01:32:20;36.50;;;13.83;;
52586;SDS011;38480;52.724;6.436;2023-07-22T01:34:46;33.43;;;14.90;;
52586;SDS011;38480;52.724;6.436;2023-07-22T01:37:13;28.83;;;13.70;;
52586;SDS011;38480;52.724;6.436;2023-07-22T01:39:39;26.57;;;12.97;;
52586;SDS011;38480;52.724;6.436;2023-07-22T01:42:05;31.97;;;13.47;;
52586;SDS011;38480;52.724;6.436;2023-07-22T01:44:31;32.53;;;14.13;;
52586;SDS011;38480;52.724;6.436;2023-07-22T01:46:57;28.53;;;12.57;;
52586;SDS011;38480;52.724;6.436;2023-07-22T01:49:23;32.40;;;14.00;;
52586;SDS011;38480;52.724;6.436;2023-07-22T01:51:51;30.17;;;12.37;;
52586;SDS011;38480;52.724;6.436;2023-07-22T01:54:17;30.87;;;13.37;;
52586;SDS011;38480;52.724;6.436;2023-07-22T01:56:43;30.17;;;14.03;;
52586;SDS011;38480;52.724;6.436;2023-07-22T01:59:09;37.20;;;14.17;;
52586;SDS011;38480;52.724;6.436;2023-07-22T02:01:35;30.00;;;13.97;;
52586;SDS011;38480;52.724;6.436;2023-07-22T02:04:01;30.23;;;13.97;;
52586;SDS011;38480;52.724;6.436;2023-07-22T02:06:28;27.47;;;12.67;;
52586;SDS011;38480;52.724;6.436;2023-07-22T02:08:54;28.33;;;13.23;;
52586;SDS011;38480;52.724;6.436;2023-07-22T02:11:21;28.43;;;13.87;;
52586;SDS011;38480;52.724;6.436;2023-07-22T02:13:47;27.07;;;13.13;;
52586;SDS011;38480;52.724;6.436;2023-07-22T02:16:13;33.30;;;14.37;;
52586;SDS011;38480;52.724;6.436;2023-07-22T02:18:39;29.30;;;13.80;;
52586;SDS011;38480;52.724;6.436;2023-07-22T02:21:05;29.87;;;14.37;;
52586;SDS011;38480;52.724;6.436;2023-07-22T02:23:31;30.37;;;13.73;;
52586;SDS011;38480;52.724;6.436;2023-07-22T02:25:57;30.27;;;15.63;;
52586;SDS011;38480;52.724;6.436;2023-07-22T02:28:24;33.63;;;14.83;;
52586;SDS011;38480;52.724;6.436;2023-07-22T02:30:51;32.83;;;14.17;;
52586;SDS011;38480;52.724;6.436;2023-07-22T02:33:18;32.67;;;14.67;;
52586;SDS011;38480;52.724;6.436;2023-07-22T02:35:44;28.17;;;14.23;;
52586;SDS011;38480;52.724;6.436;2023-07-22T02:38:10;32.47;;;14.40;;
52586;SDS011;38480;52.724;6.436;2023-07-22T02:40:37;36.03;;;16.03;;
52586;SDS011;38480;52.724;6.436;2023-07-22T02:43:03;38.83;;;16.53;;
52586;SDS011;38480;52.724;6.436;2023-07-22T02:45:31;37.53;;;16.60;;
52586;SDS011;38480;52.724;6.436;2023-07-22T02:47:57;36.07;;;15.73;;
52586;SDS011;38480;52.724;6.436;2023-07-22T02:50:23;36.57;;;16.37;;
52586;SDS011;38480;52.724;6.436;2023-07-22T02:52:50;33.43;;;15.43;;
52586;SDS011;38480;52.724;6.436;2023-07-22T02:55:16;39.60;;;16.50;;
52586;SDS011;38480;52.724;6.436;2023-07-22T02:57:46;34.10;;;15.70;;
52586;SDS011;38480;52.724;6.436;2023-07-22T03:00:12;37.67;;;15.10;;
52586;SDS011;38480;52.724;6.436;2023-07-22T03:02:39;37.40;;;17.30;;
52586;SDS011;38480;52.724;6.436;2023-07-22T03:05:08;35.17;;;16.67;;
52586;SDS011;38480;52.724;6.436;2023-07-22T03:07:35;31.33;;;15.53;;
52586;SDS011;38480;52.724;6.436;2023-07-22T03:10:01;35.83;;;16.07;;
52586;SDS011;38480;52.724;6.436;2023-07-22T03:12:27;34.87;;;15.87;;
52586;SDS011;38480;52.724;6.436;2023-07-22T03:14:53;36.63;;;15.67;;
52586;SDS011;38480;52.724;6.436;2023-07-22T03:17:19;35.07;;;15.97;;
52586;SDS011;38480;52.724;6.436;2023-07-22T03:19:46;36.10;;;16.07;;
52586;SDS011;38480;52.724;6.436;2023-07-22T03:22:13;32.57;;;15.93;;
52586;SDS011;38480;52.724;6.436;2023-07-22T03:24:41;36.33;;;16.23;;
52586;SDS011;38480;52.724;6.436;2023-07-22T03:27:07;35.33;;;16.60;;
52586;SDS011;38480;52.724;6.436;2023-07-22T03:29:33;32.30;;;15.70;;
52586;SDS011;38480;52.724;6.436;2023-07-22T03:31:59;36.97;;;16.47;;
52586;SDS011;38480;52.724;6.436;2023-07-22T03:34:29;32.63;;;15.17;;
52586;SDS011;38480;52.724;6.436;2023-07-22T03:36:55;35.63;;;17.17;;
52586;SDS011;38480;52.724;6.436;2023-07-22T03:39:21;36.93;;;16.60;;
52586;SDS011;38480;52.724;6.436;2023-07-22T03:41:47;33.33;;;16.20;;
52586;SDS011;38480;52.724;6.436;2023-07-22T03:44:13;36.63;;;16.23;;
52586;SDS011;38480;52.724;6.436;2023-07-22T03:46:39;33.90;;;16.60;;
52586;SDS011;38480;52.724;6.436;2023-07-22T03:49:06;36.03;;;15.80;;
52586;SDS011;38480;52.724;6.436;2023-07-22T03:51:32;29.57;;;15.83;;
52586;SDS011;38480;52.724;6.436;2023-07-22T03:53:58;34.73;;;17.00;;
52586;SDS011;38480;52.724;6.436;2023-07-22T03:56:24;34.43;;;15.60;;
52586;SDS011;38480;52.724;6.436;2023-07-22T03:58:50;33.53;;;15.23;;
52586;SDS011;38480;52.724;6.436;2023-07-22T04:01:16;33.60;;;16.83;;
52586;SDS011;38480;52.724;6.436;2023-07-22T04:03:44;31.07;;;15.07;;
52586;SDS011;38480;52.724;6.436;2023-07-22T04:06:10;36.47;;;17.03;;
52586;SDS011;38480;52.724;6.436;2023-07-22T04:08:36;33.57;;;15.50;;
52586;SDS011;38480;52.724;6.436;2023-07-22T04:11:02;35.77;;;16.33;;
52586;SDS011;38480;52.724;6.436;2023-07-22T04:13:29;31.90;;;16.37;;
52586;SDS011;38480;52.724;6.436;2023-07-22T04:15:55;30.07;;;15.07;;
52586;SDS011;38480;52.724;6.436;2023-07-22T04:18:21;30.23;;;15.77;;
52586;SDS011;38480;52.724;6.436;2023-07-22T04:20:47;31.00;;;15.43;;
52586;SDS011;38480;52.724;6.436;2023-07-22T04:23:13;33.17;;;15.20;;
52586;SDS011;38480;52.724;6.436;2023-07-22T04:25:39;31.13;;;15.07;;
52586;SDS011;38480;52.724;6.436;2023-07-22T04:28:05;36.93;;;15.33;;
52586;SDS011;38480;52.724;6.436;2023-07-22T04:30:32;32.80;;;16.40;;
52586;SDS011;38480;52.724;6.436;2023-07-22T04:32:58;37.57;;;17.10;;
52586;SDS011;38480;52.724;6.436;2023-07-22T04:35:24;36.63;;;17.13;;
52586;SDS011;38480;52.724;6.436;2023-07-22T04:37:50;35.30;;;16.37;;
52586;SDS011;38480;52.724;6.436;2023-07-22T04:40:16;32.27;;;16.30;;
52586;SDS011;38480;52.724;6.436;2023-07-22T04:42:43;33.13;;;15.60;;
52586;SDS011;38480;52.724;6.436;2023-07-22T04:45:10;28.67;;;14.73;;
52586;SDS011;38480;52.724;6.436;2023-07-22T04:47:36;33.43;;;16.67;;
52586;SDS011;38480;52.724;6.436;2023-07-22T04:50:04;38.10;;;15.57;;
52586;SDS011;38480;52.724;6.436;2023-07-22T04:52:33;30.43;;;16.40;;
52586;SDS011;38480;52.724;6.436;2023-07-22T04:54:59;32.87;;;15.47;;
52586;SDS011;38480;52.724;6.436;2023-07-22T04:57:25;33.07;;;16.17;;
52586;SDS011;38480;52.724;6.436;2023-07-22T04:59:51;35.50;;;15.57;;
52586;SDS011;38480;52.724;6.436;2023-07-22T05:02:17;39.70;;;16.70;;
52586;SDS011;38480;52.724;6.436;2023-07-22T05:04:43;28.47;;;14.37;;
52586;SDS011;38480;52.724;6.436;2023-07-22T05:07:09;28.27;;;14.80;;
52586;SDS011;38480;52.724;6.436;2023-07-22T05:09:36;24.90;;;13.87;;
52586;SDS011;38480;52.724;6.436;2023-07-22T05:12:02;27.43;;;14.73;;
52586;SDS011;38480;52.724;6.436;2023-07-22T05:14:28;31.33;;;16.23;;
52586;SDS011;38480;52.724;6.436;2023-07-22T05:16:54;27.57;;;14.70;;
52586;SDS011;38480;52.724;6.436;2023-07-22T05:19:20;30.10;;;15.63;;
52586;SDS011;38480;52.724;6.436;2023-07-22T05:21:46;27.73;;;15.10;;
52586;SDS011;38480;52.724;6.436;2023-07-22T05:24:12;28.43;;;15.10;;
52586;SDS011;38480;52.724;6.436;2023-07-22T05:26:38;30.20;;;15.27;;
52586;SDS011;38480;52.724;6.436;2023-07-22T05:29:04;30.93;;;14.97;;
52586;SDS011;38480;52.724;6.436;2023-07-22T05:31:30;33.10;;;15.87;;
52586;SDS011;38480;52.724;6.436;2023-07-22T05:33:56;24.00;;;14.83;;
52586;SDS011;38480;52.724;6.436;2023-07-22T05:36:23;33.50;;;16.00;;
52586;SDS011;38480;52.724;6.436;2023-07-22T05:38:49;29.70;;;15.80;;
52586;SDS011;38480;52.724;6.436;2023-07-22T05:41:15;34.03;;;16.73;;
52586;SDS011;38480;52.724;6.436;2023-07-22T05:43:42;34.40;;;17.17;;
52586;SDS011;38480;52.724;6.436;2023-07-22T05:46:08;29.33;;;17.93;;
52586;SDS011;38480;52.724;6.436;2023-07-22T05:48:33;30.87;;;18.37;;
52586;SDS011;38480;52.724;6.436;2023-07-22T05:50:59;32.43;;;18.10;;
52586;SDS011;38480;52.724;6.436;2023-07-22T05:53:25;34.23;;;18.83;;
52586;SDS011;38480;52.724;6.436;2023-07-22T05:55:51;35.20;;;18.43;;
52586;SDS011;38480;52.724;6.436;2023-07-22T05:58:18;37.57;;;19.67;;
52586;SDS011;38480;52.724;6.436;2023-07-22T06:00:44;35.67;;;19.83;;
52586;SDS011;38480;52.724;6.436;2023-07-22T06:03:11;35.60;;;19.50;;
52586;SDS011;38480;52.724;6.436;2023-07-22T06:05:37;36.13;;;19.83;;
52586;SDS011;38480;52.724;6.436;2023-07-22T06:08:03;34.63;;;19.50;;
52586;SDS011;38480;52.724;6.436;2023-07-22T06:10:30;38.67;;;20.50;;
52586;SDS011;38480;52.724;6.436;2023-07-22T06:12:56;38.40;;;19.80;;
52586;SDS011;38480;52.724;6.436;2023-07-22T06:15:22;39.90;;;21.03;;
52586;SDS011;38480;52.724;6.436;2023-07-22T06:17:48;44.90;;;22.43;;
52586;SDS011;38480;52.724;6.436;2023-07-22T06:20:14;52.47;;;25.73;;
52586;SDS011;38480;52.724;6.436;2023-07-22T06:22:40;49.93;;;24.23;;
52586;SDS011;38480;52.724;6.436;2023-07-22T06:25:06;53.73;;;25.63;;
52586;SDS011;38480;52.724;6.436;2023-07-22T06:27:33;50.73;;;24.07;;
52586;SDS011;38480;52.724;6.436;2023-07-22T06:30:00;48.77;;;24.13;;
52586;SDS011;38480;52.724;6.436;2023-07-22T06:32:26;52.30;;;24.80;;
52586;SDS011;38480;52.724;6.436;2023-07-22T06:34:54;55.63;;;24.50;;
52586;SDS011;38480;52.724;6.436;2023-07-22T06:37:21;58.37;;;26.10;;
52586;SDS011;38480;52.724;6.436;2023-07-22T06:39:47;63.80;;;27.03;;
52586;SDS011;38480;52.724;6.436;2023-07-22T06:42:13;50.87;;;24.60;;
52586;SDS011;38480;52.724;6.436;2023-07-22T06:44:39;50.67;;;23.97;;
52586;SDS011;38480;52.724;6.436;2023-07-22T06:47:05;49.10;;;23.93;;
52586;SDS011;38480;52.724;6.436;2023-07-22T06:49:31;42.27;;;22.53;;
52586;SDS011;38480;52.724;6.436;2023-07-22T06:51:57;45.53;;;22.53;;
52586;SDS011;38480;52.724;6.436;2023-07-22T06:54:23;38.90;;;20.17;;
52586;SDS011;38480;52.724;6.436;2023-07-22T06:56:49;41.80;;;21.53;;
52586;SDS011;38480;52.724;6.436;2023-07-22T06:59:15;41.37;;;20.73;;
52586;SDS011;38480;52.724;6.436;2023-07-22T07:01:41;44.27;;;21.43;;
52586;SDS011;38480;52.724;6.436;2023-07-22T07:04:07;34.80;;;21.27;;
52586;SDS011;38480;52.724;6.436;2023-07-22T07:06:33;34.53;;;20.43;;
52586;SDS011;38480;52.724;6.436;2023-07-22T07:08:59;38.37;;;20.37;;
52586;SDS011;38480;52.724;6.436;2023-07-22T07:11:25;34.80;;;20.80;;
52586;SDS011;38480;52.724;6.436;2023-07-22T07:13:51;36.10;;;20.53;;
52586;SDS011;38480;52.724;6.436;2023-07-22T07:16:24;31.30;;;17.93;;
52586;SDS011;38480;52.724;6.436;2023-07-22T07:18:51;37.60;;;19.95;;
52586;SDS011;38480;52.724;6.436;2023-07-22T07:21:17;31.97;;;19.03;;
52586;SDS011;38480;52.724;6.436;2023-07-22T07:23:44;33.50;;;20.23;;
52586;SDS011;38480;52.724;6.436;2023-07-22T07:26:10;34.77;;;18.63;;
52586;SDS011;38480;52.724;6.436;2023-07-22T07:28:36;30.03;;;18.07;;
52586;SDS011;38480;52.724;6.436;2023-07-22T07:31:02;31.60;;;18.20;;
52586;SDS011;38480;52.724;6.436;2023-07-22T07:33:28;30.93;;;17.67;;
52586;SDS011;38480;52.724;6.436;2023-07-22T07:35:54;29.00;;;17.57;;
52586;SDS011;38480;52.724;6.436;2023-07-22T07:38:20;24.10;;;16.77;;
52586;SDS011;38480;52.724;6.436;2023-07-22T07:40:46;28.73;;;17.40;;
52586;SDS011;38480;52.724;6.436;2023-07-22T07:43:12;28.67;;;17.13;;
52586;SDS011;38480;52.724;6.436;2023-07-22T07:45:38;27.33;;;17.47;;
52586;SDS011;38480;52.724;6.436;2023-07-22T07:48:05;24.03;;;16.77;;
52586;SDS011;38480;52.724;6.436;2023-07-22T07:50:32;21.70;;;15.40;;
52586;SDS011;38480;52.724;6.436;2023-07-22T07:52:58;23.03;;;15.20;;
52586;SDS011;38480;52.724;6.436;2023-07-22T07:55:24;24.77;;;16.53;;
52586;SDS011;38480;52.724;6.436;2023-07-22T07:57:50;23.60;;;15.97;;
52586;SDS011;38480;52.724;6.436;2023-07-22T08:00:16;25.13;;;16.40;;
52586;SDS011;38480;52.724;6.436;2023-07-22T08:02:42;23.47;;;15.63;;
52586;SDS011;38480;52.724;6.436;2023-07-22T08:05:08;23.07;;;15.77;;
52586;SDS011;38480;52.724;6.436;2023-07-22T08:07:35;23.53;;;14.77;;
52586;SDS011;38480;52.724;6.436;2023-07-22T08:10:01;25.03;;;16.20;;
52586;SDS011;38480;52.724;6.436;2023-07-22T08:12:29;23.73;;;15.27;;
52586;SDS011;38480;52.724;6.436;2023-07-22T08:14:55;19.23;;;14.40;;
52586;SDS011;38480;52.724;6.436;2023-07-22T08:17:21;23.60;;;15.43;;
52586;SDS011;38480;52.724;6.436;2023-07-22T08:19:47;22.40;;;14.93;;
52586;SDS011;38480;52.724;6.436;2023-07-22T08:22:14;25.77;;;16.57;;
52586;SDS011;38480;52.724;6.436;2023-07-22T08:24:40;24.73;;;14.80;;
52586;SDS011;38480;52.724;6.436;2023-07-22T08:27:06;24.87;;;14.57;;
52586;SDS011;38480;52.724;6.436;2023-07-22T08:29:32;19.17;;;13.03;;
52586;SDS011;38480;52.724;6.436;2023-07-22T08:31:58;19.57;;;13.40;;
52586;SDS011;38480;52.724;6.436;2023-07-22T08:34:24;21.33;;;13.20;;
52586;SDS011;38480;52.724;6.436;2023-07-22T08:36:50;26.13;;;14.43;;
52586;SDS011;38480;52.724;6.436;2023-07-22T08:39:16;37.40;;;16.83;;
52586;SDS011;38480;52.724;6.436;2023-07-22T08:41:42;27.07;;;16.57;;
52586;SDS011;38480;52.724;6.436;2023-07-22T08:44:14;25.33;;;15.97;;
52586;SDS011;38480;52.724;6.436;2023-07-22T08:46:43;36.90;;;19.00;;
52586;SDS011;38480;52.724;6.436;2023-07-22T08:49:10;26.17;;;16.87;;
52586;SDS011;38480;52.724;6.436;2023-07-22T08:51:36;28.63;;;16.67;;
52586;SDS011;38480;52.724;6.436;2023-07-22T08:54:02;25.40;;;14.67;;
52586;SDS011;38480;52.724;6.436;2023-07-22T08:56:28;37.03;;;18.87;;
52586;SDS011;38480;52.724;6.436;2023-07-22T08:58:55;29.60;;;17.07;;
52586;SDS011;38480;52.724;6.436;2023-07-22T09:01:21;43.27;;;20.83;;
52586;SDS011;38480;52.724;6.436;2023-07-22T09:03:48;42.97;;;19.07;;
52586;SDS011;38480;52.724;6.436;2023-07-22T09:06:18;28.80;;;15.87;;
52586;SDS011;38480;52.724;6.436;2023-07-22T09:08:45;29.50;;;16.03;;
52586;SDS011;38480;52.724;6.436;2023-07-22T09:11:11;19.73;;;12.73;;
52586;SDS011;38480;52.724;6.436;2023-07-22T09:13:37;210.10;;;23.90;;
52586;SDS011;38480;52.724;6.436;2023-07-22T09:16:05;89.67;;;17.63;;
52586;SDS011;38480;52.724;6.436;2023-07-22T09:18:32;86.23;;;25.70;;
52586;SDS011;38480;52.724;6.436;2023-07-22T09:20:59;136.57;;;36.43;;
52586;SDS011;38480;52.724;6.436;2023-07-22T09:23:32;45.57;;;20.43;;
52586;SDS011;38480;52.724;6.436;2023-07-22T09:26:07;83.05;;;27.58;;
52586;SDS011;38480;52.724;6.436;2023-07-22T09:28:52;149.33;;;38.93;;
52586;SDS011;38480;52.724;6.436;2023-07-22T09:31:23;83.27;;;28.63;;
52586;SDS011;38480;52.724;6.436;2023-07-22T09:33:49;37.33;;;17.93;;
52586;SDS011;38480;52.724;6.436;2023-07-22T09:36:16;33.03;;;16.20;;
52586;SDS011;38480;52.724;6.436;2023-07-22T09:38:42;59.40;;;21.47;;
52586;SDS011;38480;52.724;6.436;2023-07-22T09:41:08;40.47;;;18.37;;
52586;SDS011;38480;52.724;6.436;2023-07-22T09:43:37;20.77;;;12.63;;
52586;SDS011;38480;52.724;6.436;2023-07-22T09:46:10;21.27;;;11.83;;
52586;SDS011;38480;52.724;6.436;2023-07-22T09:48:43;50.70;;;19.73;;
52586;SDS011;38480;52.724;6.436;2023-07-22T09:51:13;39.80;;;17.87;;
52586;SDS011;38480;52.724;6.436;2023-07-22T09:53:43;47.40;;;18.77;;
52586;SDS011;38480;52.724;6.436;2023-07-22T09:56:10;28.93;;;14.90;;
52586;SDS011;38480;52.724;6.436;2023-07-22T09:58:36;31.23;;;14.73;;
52586;SDS011;38480;52.724;6.436;2023-07-22T10:01:02;56.67;;;22.07;;
52586;SDS011;38480;52.724;6.436;2023-07-22T10:03:29;63.30;;;21.93;;
52586;SDS011;38480;52.724;6.436;2023-07-22T10:05:55;88.23;;;25.60;;
52586;SDS011;38480;52.724;6.436;2023-07-22T10:08:23;262.30;;;55.43;;
52586;SDS011;38480;52.724;6.436;2023-07-22T10:10:51;70.63;;;26.00;;
52586;SDS011;38480;52.724;6.436;2023-07-22T10:13:17;40.13;;;18.33;;
52586;SDS011;38480;52.724;6.436;2023-07-22T10:15:43;78.93;;;24.60;;
52586;SDS011;38480;52.724;6.436;2023-07-22T10:18:10;53.43;;;20.10;;
52586;SDS011;38480;52.724;6.436;2023-07-22T10:20:37;45.40;;;18.60;;
52586;SDS011;38480;52.724;6.436;2023-07-22T10:23:04;79.17;;;25.43;;
52586;SDS011;38480;52.724;6.436;2023-07-22T10:25:31;202.50;;;45.50;;
52586;SDS011;38480;52.724;6.436;2023-07-22T10:27:57;213.10;;;48.33;;
52586;SDS011;38480;52.724;6.436;2023-07-22T10:30:23;289.60;;;58.20;;
52586;SDS011;38480;52.724;6.436;2023-07-22T10:32:51;35.40;;;16.83;;
52586;SDS011;38480;52.724;6.436;2023-07-22T10:35:21;26.40;;;13.70;;
52586;SDS011;38480;52.724;6.436;2023-07-22T10:37:48;25.10;;;15.10;;
52586;SDS011;38480;52.724;6.436;2023-07-22T10:43:00;30.27;;;16.27;;
52586;SDS011;38480;52.724;6.436;2023-07-22T10:45:29;27.57;;;15.47;;
52586;SDS011;38480;52.724;6.436;2023-07-22T10:48:00;25.63;;;15.33;;
52586;SDS011;38480;52.724;6.436;2023-07-22T10:50:37;25.17;;;15.63;;
52586;SDS011;38480;52.724;6.436;2023-07-22T10:53:03;36.93;;;17.37;;
52586;SDS011;38480;52.724;6.436;2023-07-22T10:55:29;30.57;;;15.23;;
52586;SDS011;38480;52.724;6.436;2023-07-22T10:57:58;30.80;;;16.10;;
52586;SDS011;38480;52.724;6.436;2023-07-22T11:00:29;20.85;;;11.63;;
52586;SDS011;38480;52.724;6.436;2023-07-22T11:03:13;14.43;;;9.47;;
52586;SDS011;38480;52.724;6.436;2023-07-22T11:05:47;25.77;;;13.77;;
52586;SDS011;38480;52.724;6.436;2023-07-22T11:08:14;26.47;;;14.97;;
52586;SDS011;38480;52.724;6.436;2023-07-22T11:10:51;33.60;;;18.40;;
52586;SDS011;38480;52.724;6.436;2023-07-22T11:13:18;32.70;;;19.07;;
52586;SDS011;38480;52.724;6.436;2023-07-22T11:15:47;33.47;;;19.97;;
52586;SDS011;38480;52.724;6.436;2023-07-22T11:18:13;40.47;;;21.63;;
52586;SDS011;38480;52.724;6.436;2023-07-22T11:20:39;27.03;;;16.93;;
52586;SDS011;38480;52.724;6.436;2023-07-22T11:23:05;39.97;;;21.30;;
52586;SDS011;38480;52.724;6.436;2023-07-22T11:25:33;29.47;;;17.97;;
52586;SDS011;38480;52.724;6.436;2023-07-22T11:27:59;41.93;;;22.83;;
52586;SDS011;38480;52.724;6.436;2023-07-22T11:30:25;31.50;;;19.20;;
52586;SDS011;38480;52.724;6.436;2023-07-22T11:32:52;35.30;;;19.83;;
52586;SDS011;38480;52.724;6.436;2023-07-22T11:35:18;33.27;;;19.37;;
52586;SDS011;38480;52.724;6.436;2023-07-22T11:37:44;32.43;;;19.27;;
52586;SDS011;38480;52.724;6.436;2023-07-22T11:40:11;38.83;;;23.63;;
52586;SDS011;38480;52.724;6.436;2023-07-22T11:42:38;34.40;;;22.50;;
52586;SDS011;38480;52.724;6.436;2023-07-22T11:45:04;31.23;;;21.80;;
52586;SDS011;38480;52.724;6.436;2023-07-22T11:47:31;27.63;;;19.57;;
52586;SDS011;38480;52.724;6.436;2023-07-22T11:49:57;37.57;;;23.33;;
52586;SDS011;38480;52.724;6.436;2023-07-22T11:52:23;36.63;;;21.70;;
52586;SDS011;38480;52.724;6.436;2023-07-22T11:54:49;27.07;;;19.53;;
52586;SDS011;38480;52.724;6.436;2023-07-22T11:57:16;30.10;;;18.80;;
52586;SDS011;38480;52.724;6.436;2023-07-22T11:59:52;32.03;;;20.90;;
52586;SDS011;38480;52.724;6.436;2023-07-22T12:02:22;22.13;;;16.43;;
52586;SDS011;38480;52.724;6.436;2023-07-22T12:04:52;24.77;;;16.60;;
52586;SDS011;38480;52.724;6.436;2023-07-22T12:07:23;19.83;;;15.00;;
52586;SDS011;38480;52.724;6.436;2023-07-22T12:09:49;28.07;;;17.27;;
52586;SDS011;38480;52.724;6.436;2023-07-22T12:12:15;22.10;;;16.17;;
52586;SDS011;38480;52.724;6.436;2023-07-22T12:14:41;23.13;;;17.43;;
52586;SDS011;38480;52.724;6.436;2023-07-22T12:17:10;30.20;;;18.90;;
52586;SDS011;38480;52.724;6.436;2023-07-22T12:19:36;26.13;;;18.30;;
52586;SDS011;38480;52.724;6.436;2023-07-22T12:22:02;26.77;;;18.10;;
52586;SDS011;38480;52.724;6.436;2023-07-22T12:24:28;17.63;;;14.60;;
52586;SDS011;38480;52.724;6.436;2023-07-22T12:26:54;26.10;;;18.27;;
52586;SDS011;38480;52.724;6.436;2023-07-22T12:29:20;18.47;;;14.33;;
52586;SDS011;38480;52.724;6.436;2023-07-22T12:31:47;21.67;;;16.33;;
52586;SDS011;38480;52.724;6.436;2023-07-22T12:34:13;23.37;;;16.07;;
52586;SDS011;38480;52.724;6.436;2023-07-22T12:36:39;20.13;;;13.23;;
52586;SDS011;38480;52.724;6.436;2023-07-22T12:39:06;15.43;;;11.03;;
52586;SDS011;38480;52.724;6.436;2023-07-22T12:41:32;14.47;;;11.83;;
52586;SDS011;38480;52.724;6.436;2023-07-22T12:43:58;18.47;;;11.13;;
52586;SDS011;38480;52.724;6.436;2023-07-22T12:46:24;18.37;;;11.90;;
52586;SDS011;38480;52.724;6.436;2023-07-22T12:48:50;24.80;;;15.63;;
52586;SDS011;38480;52.724;6.436;2023-07-22T12:51:16;20.77;;;14.63;;
52586;SDS011;38480;52.724;6.436;2023-07-22T12:53:42;23.20;;;15.50;;
52586;SDS011;38480;52.724;6.436;2023-07-22T12:56:08;26.90;;;17.40;;
52586;SDS011;38480;52.724;6.436;2023-07-22T12:58:34;23.60;;;14.37;;
52586;SDS011;38480;52.724;6.436;2023-07-22T13:01:00;20.37;;;12.80;;
52586;SDS011;38480;52.724;6.436;2023-07-22T13:03:26;22.63;;;15.17;;
52586;SDS011;38480;52.724;6.436;2023-07-22T13:05:52;15.93;;;12.03;;
52586;SDS011;38480;52.724;6.436;2023-07-22T13:08:18;31.47;;;18.50;;
52586;SDS011;38480;52.724;6.436;2023-07-22T13:10:44;19.00;;;12.93;;
52586;SDS011;38480;52.724;6.436;2023-07-22T13:13:12;26.27;;;17.30;;
52586;SDS011;38480;52.724;6.436;2023-07-22T13:15:38;28.40;;;16.90;;
52586;SDS011;38480;52.724;6.436;2023-07-22T13:18:04;24.30;;;14.77;;
52586;SDS011;38480;52.724;6.436;2023-07-22T13:20:30;27.33;;;16.60;;
52586;SDS011;38480;52.724;6.436;2023-07-22T13:22:56;27.93;;;18.13;;
52586;SDS011;38480;52.724;6.436;2023-07-22T13:25:22;25.20;;;16.37;;
52586;SDS011;38480;52.724;6.436;2023-07-22T13:27:48;22.27;;;15.90;;
52586;SDS011;38480;52.724;6.436;2023-07-22T13:30:14;23.40;;;14.83;;
52586;SDS011;38480;52.724;6.436;2023-07-22T13:32:40;22.63;;;15.10;;
52586;SDS011;38480;52.724;6.436;2023-07-22T13:35:07;19.03;;;15.53;;
52586;SDS011;38480;52.724;6.436;2023-07-22T13:37:34;23.53;;;16.30;;
52586;SDS011;38480;52.724;6.436;2023-07-22T13:40:00;23.00;;;15.83;;
52586;SDS011;38480;52.724;6.436;2023-07-22T13:42:26;27.10;;;16.13;;
52586;SDS011;38480;52.724;6.436;2023-07-22T13:44:52;26.17;;;16.20;;
52586;SDS011;38480;52.724;6.436;2023-07-22T13:47:18;19.90;;;14.73;;
52586;SDS011;38480;52.724;6.436;2023-07-22T13:49:44;20.73;;;15.83;;
52586;SDS011;38480;52.724;6.436;2023-07-22T13:52:10;23.53;;;16.50;;
52586;SDS011;38480;52.724;6.436;2023-07-22T13:54:36;16.37;;;13.77;;
52586;SDS011;38480;52.724;6.436;2023-07-22T13:57:02;14.13;;;11.43;;
52586;SDS011;38480;52.724;6.436;2023-07-22T13:59:28;15.27;;;12.67;;
52586;SDS011;38480;52.724;6.436;2023-07-22T14:01:54;19.57;;;13.03;;
52586;SDS011;38480;52.724;6.436;2023-07-22T14:04:20;20.80;;;13.23;;
52586;SDS011;38480;52.724;6.436;2023-07-22T14:06:46;19.57;;;13.87;;
52586;SDS011;38480;52.724;6.436;2023-07-22T14:09:12;18.90;;;13.13;;
52586;SDS011;38480;52.724;6.436;2023-07-22T14:11:38;20.83;;;15.60;;
52586;SDS011;38480;52.724;6.436;2023-07-22T14:14:04;23.33;;;15.43;;
52586;SDS011;38480;52.724;6.436;2023-07-22T14:16:30;23.07;;;16.30;;
52586;SDS011;38480;52.724;6.436;2023-07-22T14:18:56;22.63;;;16.30;;
52586;SDS011;38480;52.724;6.436;2023-07-22T14:21:22;20.17;;;15.23;;